createdAt,value
2019-04-19T00:00:56.020Z,7.31
2019-04-19T00:02:02.413Z,7.31
2019-04-19T00:03:00.321Z,7.29
2019-04-19T00:04:11.112Z,7.27
2019-04-19T00:05:09.409Z,7.25
2019-04-19T00:06:19.936Z,7.23
2019-04-19T00:07:21.455Z,7.21
2019-04-19T00:08:37.309Z,7.20
2019-04-19T00:09:34.606Z,7.20
2019-04-19T00:10:38.406Z,7.19
2019-04-19T00:11:43.443Z,7.18
2019-04-19T00:12:48.285Z,7.17
2019-04-19T00:13:43.028Z,7.17
2019-04-19T00:14:46.827Z,7.17
2019-04-19T00:15:51.893Z,7.17
2019-04-19T00:16:55.558Z,7.17
2019-04-19T00:18:05.700Z,7.16
2019-04-19T00:19:28.966Z,7.15
2019-04-19T00:20:36.472Z,7.15
2019-04-19T00:21:28.917Z,7.15
2019-04-19T00:22:33.962Z,7.16
2019-04-19T00:23:31.124Z,7.16
2019-04-19T00:24:24.896Z,7.16
2019-04-19T00:25:30.261Z,7.15
2019-04-19T00:26:33.858Z,7.13
2019-04-19T00:27:44.468Z,7.12
2019-04-19T00:28:50.576Z,7.11
2019-04-19T00:29:54.366Z,7.10
2019-04-19T00:31:00.338Z,7.09
2019-04-19T00:32:14.322Z,7.08
2019-04-19T00:33:12.294Z,7.05
2019-04-19T00:34:03.231Z,7.04
2019-04-19T00:35:07.443Z,7.03
2019-04-19T00:36:13.592Z,7.02
2019-04-19T00:37:16.443Z,7.02
2019-04-19T00:38:35.735Z,7.01
2019-04-19T00:39:38.480Z,7.01
2019-04-19T00:40:38.117Z,6.99
2019-04-19T00:41:47.515Z,6.99
2019-04-19T00:42:48.461Z,6.98
2019-04-19T00:43:56.251Z,6.98
2019-04-19T00:45:05.287Z,6.98
2019-04-19T00:46:12.501Z,6.98
2019-04-19T00:47:11.992Z,6.98
2019-04-19T00:48:08.650Z,6.98
2019-04-19T00:49:14.550Z,6.97
2019-04-19T00:50:18.459Z,6.96
2019-04-19T00:51:20.870Z,6.95
2019-04-19T00:52:34.258Z,6.95
2019-04-19T00:53:30.696Z,6.94
2019-04-19T00:54:30.035Z,6.94
2019-04-19T00:55:40.669Z,6.94
2019-04-19T00:56:42.671Z,6.95
2019-04-19T00:57:42.328Z,6.95
2019-04-19T00:58:48.378Z,6.96
2019-04-19T00:59:47.164Z,6.97
2019-04-19T01:00:49.126Z,6.99
2019-04-19T01:01:56.783Z,7.00
2019-04-19T01:02:58.290Z,7.00
2019-04-19T01:04:01.141Z,7.00
2019-04-19T01:05:10.543Z,7.00
2019-04-19T01:06:14.143Z,7.00
2019-04-19T01:07:21.127Z,7.00
2019-04-19T01:08:21.261Z,7.00
2019-04-19T01:09:35.613Z,7.00
2019-04-19T01:10:37.085Z,6.99
2019-04-19T01:11:42.759Z,6.99
2019-04-19T01:12:52.609Z,6.99
2019-04-19T01:13:56.208Z,6.99
2019-04-19T01:14:50.899Z,6.99
2019-04-19T01:15:59.820Z,6.98
2019-04-19T01:17:06.441Z,6.97
2019-04-19T01:18:11.695Z,6.97
2019-04-19T01:19:06.800Z,6.95
2019-04-19T01:20:07.010Z,6.93
2019-04-19T01:21:09.164Z,6.93
2019-04-19T01:22:17.354Z,6.91
2019-04-19T01:23:18.253Z,6.90
2019-04-19T01:24:29.179Z,6.89
2019-04-19T01:25:27.807Z,6.89
2019-04-19T01:26:35.759Z,6.87
2019-04-19T01:27:35.995Z,6.87
2019-04-19T01:28:38.812Z,6.87
2019-04-19T01:29:45.084Z,6.85
2019-04-19T01:30:47.470Z,6.84
2019-04-19T01:31:58.099Z,6.83
2019-04-19T01:32:59.006Z,6.81
2019-04-19T01:34:01.928Z,6.79
2019-04-19T01:35:09.243Z,6.79
2019-04-19T01:36:08.186Z,6.77
2019-04-19T01:37:17.635Z,6.76
2019-04-19T01:38:15.493Z,6.76
2019-04-19T01:39:32.230Z,6.76
2019-04-19T01:40:43.976Z,6.75
2019-04-19T01:41:43.558Z,6.74
2019-04-19T01:42:50.718Z,6.74
2019-04-19T01:43:54.931Z,6.73
2019-04-19T01:44:59.296Z,6.73
2019-04-19T01:45:59.429Z,6.74
2019-04-19T01:47:06.578Z,6.73
2019-04-19T01:48:07.556Z,6.73
2019-04-19T01:49:11.877Z,6.72
2019-04-19T01:50:14.230Z,6.71
2019-04-19T01:51:20.040Z,6.71
2019-04-19T01:52:36.845Z,6.71
2019-04-19T01:53:28.168Z,6.72
2019-04-19T01:54:44.192Z,6.71
2019-04-19T01:55:25.679Z,6.71
2019-04-19T01:56:28.375Z,6.70
2019-04-19T01:57:32.403Z,6.71
2019-04-19T01:58:38.881Z,6.71
2019-04-19T01:59:45.874Z,6.71
2019-04-19T02:00:46.701Z,6.72
2019-04-19T02:01:55.490Z,6.73
2019-04-19T02:02:56.692Z,6.74
2019-04-19T02:03:57.088Z,6.74
2019-04-19T02:05:06.873Z,6.75
2019-04-19T02:06:10.695Z,6.75
2019-04-19T02:07:16.497Z,6.76
2019-04-19T02:08:15.929Z,6.76
2019-04-19T02:09:29.233Z,6.77
2019-04-19T02:10:38.563Z,6.77
2019-04-19T02:11:36.021Z,6.77
2019-04-19T02:12:42.149Z,6.77
2019-04-19T02:13:45.990Z,6.77
2019-04-19T02:14:48.483Z,6.77
2019-04-19T02:15:48.171Z,6.76
2019-04-19T02:16:52.609Z,6.76
2019-04-19T02:17:54.021Z,6.75
2019-04-19T02:19:05.322Z,6.75
2019-04-19T02:20:02.736Z,6.75
2019-04-19T02:21:04.441Z,6.75
2019-04-19T02:22:16.933Z,6.74
2019-04-19T02:23:16.082Z,6.74
2019-04-19T02:24:17.189Z,6.74
2019-04-19T02:25:26.115Z,6.72
2019-04-19T02:26:26.936Z,6.71
2019-04-19T02:27:34.976Z,6.70
2019-04-19T02:28:38.347Z,6.69
2019-04-19T02:29:38.581Z,6.68
2019-04-19T02:30:58.205Z,6.66
2019-04-19T02:32:13.381Z,6.65
2019-04-19T02:33:15.372Z,6.64
2019-04-19T02:34:30.852Z,6.63
2019-04-19T02:35:36.650Z,6.61
2019-04-19T02:36:36.963Z,6.59
2019-04-19T02:37:34.527Z,6.58
2019-04-19T02:38:46.848Z,6.57
2019-04-19T02:39:45.470Z,6.55
2019-04-19T02:41:08.119Z,6.54
2019-04-19T02:43:03.883Z,6.52
2019-04-19T02:47:18.088Z,6.49
2019-04-19T02:48:16.404Z,6.48
2019-04-19T02:49:28.535Z,6.47
2019-04-19T02:50:40.226Z,6.45
2019-04-19T02:51:34.695Z,6.42
2019-04-19T02:52:40.280Z,6.41
2019-04-19T02:53:39.252Z,6.40
2019-04-19T02:54:40.569Z,6.38
2019-04-19T02:56:03.708Z,6.36
2019-04-19T02:57:55.113Z,6.36
2019-04-19T02:59:04.712Z,6.35
2019-04-19T03:00:28.270Z,6.35
2019-04-19T03:01:14.691Z,6.35
2019-04-19T03:02:24.675Z,6.35
2019-04-19T03:03:13.348Z,6.36
2019-04-19T03:04:42.353Z,6.36
2019-04-19T03:05:22.696Z,6.36
2019-04-19T03:06:16.467Z,6.36
2019-04-19T03:07:08.843Z,6.36
2019-04-19T03:08:10.508Z,6.37
2019-04-19T03:09:15.246Z,6.37
2019-04-19T03:10:22.370Z,6.37
2019-04-19T03:11:35.387Z,6.36
2019-04-19T03:12:51.641Z,6.35
2019-04-19T03:13:46.429Z,6.36
2019-04-19T03:14:54.630Z,6.36
2019-04-19T03:15:54.766Z,6.35
2019-04-19T03:17:05.625Z,6.37
2019-04-19T03:18:09.294Z,6.38
2019-04-19T03:19:05.811Z,6.38
2019-04-19T03:20:15.169Z,6.37
2019-04-19T03:21:11.499Z,6.36
2019-04-19T03:22:25.598Z,6.34
2019-04-19T03:23:23.290Z,6.32
2019-04-19T03:24:29.856Z,6.31
2019-04-19T03:25:32.957Z,6.29
2019-04-19T03:26:39.944Z,6.27
2019-04-19T03:27:37.616Z,6.24
2019-04-19T03:28:38.500Z,6.22
2019-04-19T03:29:39.051Z,6.21
2019-04-19T03:31:10.371Z,6.21
2019-04-19T03:32:37.712Z,6.21
2019-04-19T03:34:18.609Z,6.22
2019-04-19T03:35:06.531Z,6.23
2019-04-19T03:36:15.079Z,6.23
2019-04-19T03:37:25.580Z,6.24
2019-04-19T03:38:30.190Z,6.23
2019-04-19T03:39:37.198Z,6.23
2019-04-19T03:40:34.802Z,6.23
2019-04-19T03:41:57.129Z,6.24
2019-04-19T03:42:47.182Z,6.24
2019-04-19T03:43:47.868Z,6.24
2019-04-19T03:45:00.442Z,6.23
2019-04-19T03:46:01.791Z,6.21
2019-04-19T03:47:04.927Z,6.20
2019-04-19T03:48:09.221Z,6.19
2019-04-19T03:49:21.983Z,6.18
2019-04-19T03:50:16.175Z,6.17
2019-04-19T03:51:18.538Z,6.16
2019-04-19T03:52:26.649Z,6.16
2019-04-19T03:53:36.433Z,6.14
2019-04-19T03:54:28.290Z,6.12
2019-04-19T03:55:39.092Z,6.11
2019-04-19T03:56:38.145Z,6.09
2019-04-19T03:57:39.142Z,6.08
2019-04-19T03:58:32.188Z,6.07
2019-04-19T03:59:35.251Z,6.06
2019-04-19T04:00:38.940Z,6.05
2019-04-19T04:01:48.384Z,6.05
2019-04-19T04:02:49.358Z,6.06
2019-04-19T04:03:56.624Z,6.06
2019-04-19T04:05:01.909Z,6.07
2019-04-19T04:06:00.106Z,6.09
2019-04-19T04:07:10.722Z,6.10
2019-04-19T04:08:13.176Z,6.12
2019-04-19T04:09:13.889Z,6.15
2019-04-19T04:10:24.033Z,6.18
2019-04-19T04:11:24.884Z,6.21
2019-04-19T04:12:40.553Z,6.24
2019-04-19T04:13:39.196Z,6.27
2019-04-19T04:14:50.369Z,6.30
2019-04-19T04:15:53.061Z,6.31
2019-04-19T04:16:47.156Z,6.33
2019-04-19T04:17:47.738Z,6.35
2019-04-19T04:18:51.364Z,6.37
2019-04-19T04:19:56.668Z,6.38
2019-04-19T04:21:00.700Z,6.39
2019-04-19T04:22:07.619Z,6.39
2019-04-19T04:23:13.620Z,6.39
2019-04-19T04:24:21.063Z,6.38
2019-04-19T04:25:23.450Z,6.38
2019-04-19T04:26:32.655Z,6.38
2019-04-19T04:27:35.999Z,6.38
2019-04-19T04:28:42.653Z,6.37
2019-04-19T04:29:40.080Z,6.38
2019-04-19T04:30:54.098Z,6.40
2019-04-19T04:31:55.888Z,6.44
2019-04-19T04:32:57.296Z,6.48
2019-04-19T04:34:02.768Z,6.51
2019-04-19T04:35:10.432Z,6.53
2019-04-19T04:36:21.151Z,6.55
2019-04-19T04:37:20.585Z,6.56
2019-04-19T04:38:16.867Z,6.57
2019-04-19T04:39:11.345Z,6.57
2019-04-19T04:40:16.602Z,6.56
2019-04-19T04:41:23.584Z,6.55
2019-04-19T04:42:31.523Z,6.55
2019-04-19T04:43:39.185Z,6.55
2019-04-19T04:44:50.669Z,6.55
2019-04-19T04:46:03.366Z,6.54
2019-04-19T04:47:02.860Z,6.55
2019-04-19T04:47:59.856Z,6.56
2019-04-19T04:49:15.464Z,6.57
2019-04-19T04:50:19.451Z,6.59
2019-04-19T04:51:18.360Z,6.61
2019-04-19T04:52:09.937Z,6.64
2019-04-19T04:53:06.797Z,6.66
2019-04-19T04:54:10.437Z,6.67
2019-04-19T04:55:15.656Z,6.69
2019-04-19T04:56:19.469Z,6.71
2019-04-19T04:57:31.817Z,6.73
2019-04-19T04:58:33.886Z,6.77
2019-04-19T04:59:34.599Z,6.80
2019-04-19T05:00:47.272Z,6.83
2019-04-19T05:01:50.682Z,6.86
2019-04-19T05:03:00.346Z,6.91
2019-04-19T05:05:10.972Z,6.99
2019-04-19T05:06:16.787Z,7.03
2019-04-19T05:07:22.988Z,7.07
2019-04-19T05:08:25.517Z,7.11
2019-04-19T05:09:30.421Z,7.15
2019-04-19T05:10:28.407Z,7.19
2019-04-19T05:11:33.989Z,7.24
2019-04-19T05:12:59.071Z,7.29
2019-04-19T05:13:43.725Z,7.32
2019-04-19T05:14:45.035Z,7.34
2019-04-19T05:15:55.359Z,7.38
2019-04-19T05:17:12.511Z,7.41
2019-04-19T05:18:23.686Z,7.46
2019-04-19T05:19:06.607Z,7.49
2019-04-19T05:20:13.079Z,7.52
2019-04-19T05:21:17.991Z,7.56
2019-04-19T05:22:16.809Z,7.61
2019-04-19T05:23:22.789Z,7.65
2019-04-19T05:24:26.697Z,7.68
2019-04-19T05:25:35.778Z,7.73
2019-04-19T05:26:38.675Z,7.77
2019-04-19T05:27:39.004Z,7.82
2019-04-19T05:28:41.005Z,7.86
2019-04-19T05:29:36.444Z,7.90
2019-04-19T05:30:43.169Z,7.95
2019-04-19T05:31:46.074Z,8.00
2019-04-19T05:32:50.869Z,8.05
2019-04-19T05:34:09.667Z,8.11
2019-04-19T05:35:07.052Z,8.18
2019-04-19T05:36:13.806Z,8.27
2019-04-19T05:37:14.076Z,8.41
2019-04-19T05:38:23.351Z,8.61
2019-04-19T05:39:31.545Z,8.91
2019-04-19T05:40:27.737Z,9.27
2019-04-19T05:41:29.712Z,9.70
2019-04-19T05:42:42.903Z,10.19
2019-04-19T05:43:57.314Z,10.68
2019-04-19T05:45:00.790Z,11.13
2019-04-19T05:46:01.660Z,11.56
2019-04-19T05:47:07.655Z,11.92
2019-04-19T05:47:53.922Z,12.21
2019-04-19T05:49:02.677Z,12.43
2019-04-19T05:50:16.953Z,12.62
2019-04-19T05:51:25.603Z,12.76
2019-04-19T05:52:19.242Z,12.74
2019-04-19T05:53:16.488Z,12.77
2019-04-19T05:54:11.919Z,12.77
2019-04-19T05:55:13.468Z,12.78
2019-04-19T05:56:17.893Z,12.79
2019-04-19T05:57:40.168Z,12.72
2019-04-19T05:58:43.329Z,12.72
2019-04-19T05:59:43.571Z,12.71
2019-04-19T06:00:51.808Z,12.74
2019-04-19T06:01:55.090Z,12.83
2019-04-19T06:02:54.699Z,12.93
2019-04-19T06:04:07.588Z,13.02
2019-04-19T06:05:16.479Z,13.14
2019-04-19T06:06:19.932Z,13.28
2019-04-19T06:07:17.557Z,13.37
2019-04-19T06:08:12.166Z,13.46
2019-04-19T06:09:09.136Z,13.54
2019-04-19T06:10:14.676Z,13.52
2019-04-19T06:11:23.144Z,13.52
2019-04-19T06:12:26.821Z,13.54
2019-04-19T06:13:25.975Z,13.57
2019-04-19T06:15:55.832Z,13.51
2019-04-19T06:16:51.572Z,13.44
2019-04-19T06:18:00.426Z,13.43
2019-04-19T06:19:08.893Z,13.39
2019-04-19T06:20:13.921Z,13.38
2019-04-19T06:21:22.227Z,13.40
2019-04-19T06:22:10.033Z,13.37
2019-04-19T06:23:23.550Z,13.35
2019-04-19T06:24:27.604Z,13.29
2019-04-19T06:25:39.112Z,13.23
2019-04-19T06:26:58.887Z,13.22
2019-04-19T06:27:53.113Z,13.20
2019-04-19T06:28:59.788Z,13.12
2019-04-19T06:29:50.514Z,13.09
2019-04-19T06:30:53.469Z,13.10
2019-04-19T06:32:05.673Z,13.02
2019-04-19T06:33:05.178Z,13.05
2019-04-19T06:34:13.012Z,13.07
2019-04-19T06:35:06.877Z,13.09
2019-04-19T06:36:01.011Z,13.12
2019-04-19T06:37:08.430Z,13.13
2019-04-19T06:38:05.502Z,13.14
2019-04-19T06:39:09.909Z,13.17
2019-04-19T06:40:21.147Z,13.16
2019-04-19T06:41:22.166Z,13.11
2019-04-19T06:42:31.893Z,13.12
2019-04-19T06:43:42.247Z,13.12
2019-04-19T06:44:51.249Z,13.14
2019-04-19T06:45:55.575Z,13.12
2019-04-19T06:46:56.298Z,13.16
2019-04-19T06:47:54.241Z,13.20
2019-04-19T06:48:59.052Z,13.16
2019-04-19T06:49:54.550Z,13.20
2019-04-19T06:51:01.847Z,13.23
2019-04-19T06:52:09.108Z,13.29
2019-04-19T06:53:05.988Z,13.43
2019-04-19T06:54:12.309Z,13.54
2019-04-19T06:55:23.318Z,13.65
2019-04-19T06:56:25.686Z,13.76
2019-04-19T06:57:29.046Z,13.89
2019-04-19T06:58:40.363Z,13.93
2019-04-19T06:59:50.402Z,14.02
2019-04-19T07:00:51.979Z,14.10
2019-04-19T07:01:48.409Z,14.19
2019-04-19T07:02:45.537Z,14.27
2019-04-19T07:03:49.472Z,14.29
2019-04-19T07:05:08.900Z,14.11
2019-04-19T07:06:14.546Z,14.08
2019-04-19T07:07:23.334Z,14.04
2019-04-19T07:08:51.461Z,13.97
2019-04-19T07:09:37.506Z,13.91
2019-04-19T07:10:42.662Z,13.86
2019-04-19T07:11:41.059Z,13.86
2019-04-19T07:12:43.338Z,13.86
2019-04-19T07:13:40.458Z,13.83
2019-04-19T07:14:34.994Z,13.84
2019-04-19T07:16:04.211Z,13.73
2019-04-19T07:17:04.509Z,13.70
2019-04-19T07:18:00.702Z,13.65
2019-04-19T07:19:10.473Z,13.63
2019-04-19T07:20:12.289Z,13.60
2019-04-19T07:21:16.132Z,13.63
2019-04-19T07:22:15.378Z,13.64
2019-04-19T07:23:24.250Z,13.67
2019-04-19T07:24:43.461Z,13.68
2019-04-19T07:25:42.708Z,13.72
2019-04-19T07:27:37.937Z,13.68
2019-04-19T07:28:33.265Z,13.69
2019-04-19T07:29:33.624Z,13.74
2019-04-19T07:30:41.914Z,13.82
2019-04-19T07:31:43.027Z,13.89
2019-04-19T07:32:55.547Z,13.95
2019-04-19T07:34:03.540Z,14.00
2019-04-19T07:35:10.234Z,14.03
2019-04-19T07:36:17.275Z,14.06
2019-04-19T07:37:22.050Z,14.06
2019-04-19T07:38:31.351Z,14.02
2019-04-19T07:39:27.705Z,14.01
2019-04-19T07:40:37.329Z,14.01
2019-04-19T07:41:39.815Z,14.05
2019-04-19T07:42:45.537Z,14.08
2019-04-19T07:43:44.667Z,14.14
2019-04-19T07:44:45.305Z,14.21
2019-04-19T07:46:02.753Z,14.28
2019-04-19T07:47:03.524Z,14.33
2019-04-19T07:47:57.882Z,14.37
2019-04-19T07:48:51.562Z,14.43
2019-04-19T07:50:07.851Z,14.46
2019-04-19T07:51:05.793Z,14.51
2019-04-19T07:52:12.503Z,14.56
2019-04-19T07:53:10.296Z,14.59
2019-04-19T07:54:15.720Z,14.62
2019-04-19T07:55:19.209Z,14.64
2019-04-19T07:56:37.136Z,14.70
2019-04-19T07:58:20.408Z,14.74
2019-04-19T07:58:58.439Z,14.78
2019-04-19T08:00:04.594Z,14.83
2019-04-19T08:01:11.973Z,14.88
2019-04-19T08:02:13.018Z,14.93
2019-04-19T08:03:17.539Z,14.95
2019-04-19T08:04:38.333Z,15.00
2019-04-19T08:07:41.314Z,15.05
2019-04-19T08:09:43.828Z,15.15
2019-04-19T08:11:58.626Z,15.22
2019-04-19T08:12:54.546Z,15.27
2019-04-19T08:15:06.504Z,15.39
2019-04-19T08:16:04.568Z,15.42
2019-04-19T08:18:27.658Z,15.41
2019-04-19T08:27:39.813Z,16.20
2019-04-19T08:28:43.393Z,16.17
2019-04-19T08:29:46.908Z,16.18
2019-04-19T08:30:46.698Z,16.18
2019-04-19T08:31:46.707Z,16.19
2019-04-19T08:32:51.112Z,16.21
2019-04-19T08:33:55.214Z,16.16
2019-04-19T08:35:05.468Z,16.18
2019-04-19T08:36:07.422Z,16.23
2019-04-19T08:37:18.374Z,16.24
2019-04-19T08:38:19.037Z,16.26
2019-04-19T08:39:32.178Z,16.31
2019-04-19T08:40:40.627Z,16.33
2019-04-19T08:41:46.514Z,16.27
2019-04-19T08:42:47.326Z,16.28
2019-04-19T08:43:52.081Z,16.33
2019-04-19T08:44:49.702Z,16.34
2019-04-19T08:45:42.928Z,16.37
2019-04-19T08:46:47.284Z,16.40
2019-04-19T08:48:05.954Z,16.44
2019-04-19T08:48:59.364Z,16.50
2019-04-19T08:50:05.195Z,16.56
2019-04-19T08:51:05.805Z,16.60
2019-04-19T08:52:12.737Z,16.65
2019-04-19T08:53:31.831Z,16.70
2019-04-19T08:54:38.453Z,16.70
2019-04-19T08:55:40.629Z,16.76
2019-04-19T08:56:38.950Z,16.81
2019-04-19T08:57:32.614Z,16.88
2019-04-19T08:58:53.459Z,16.93
2019-04-19T09:00:03.441Z,16.99
2019-04-19T09:01:09.833Z,17.07
2019-04-19T09:02:07.330Z,17.14
2019-04-19T09:03:03.952Z,17.16
2019-04-19T09:04:20.538Z,17.20
2019-04-19T09:05:18.385Z,17.20
2019-04-19T09:08:34.363Z,17.30
2019-04-19T09:09:48.134Z,17.38
2019-04-19T09:10:53.463Z,17.43
2019-04-19T09:11:52.099Z,17.46
2019-04-19T09:13:05.677Z,17.47
2019-04-19T09:13:55.571Z,17.55
2019-04-19T09:15:01.014Z,17.56
2019-04-19T09:16:07.139Z,17.59
2019-04-19T09:17:13.085Z,17.62
2019-04-19T09:18:36.925Z,17.71
2019-04-19T09:19:25.654Z,17.73
2019-04-19T09:20:25.255Z,17.79
2019-04-19T09:21:22.976Z,17.85
2019-04-19T09:22:29.119Z,17.90
2019-04-19T09:23:28.685Z,17.97
2019-04-19T09:24:34.532Z,18.03
2019-04-19T09:25:39.571Z,18.10
2019-04-19T09:26:45.042Z,18.18
2019-04-19T09:27:55.925Z,18.21
2019-04-19T09:29:10.863Z,18.23
2019-04-19T09:31:04.335Z,18.29
2019-04-19T09:32:02.713Z,18.34
2019-04-19T09:33:01.142Z,18.37
2019-04-19T09:34:07.195Z,18.40
2019-04-19T09:35:09.277Z,18.35
2019-04-19T09:36:13.718Z,18.34
2019-04-19T09:37:23.981Z,18.37
2019-04-19T09:38:29.628Z,18.42
2019-04-19T09:39:38.402Z,18.49
2019-04-19T09:40:35.294Z,18.56
2019-04-19T09:41:38.755Z,18.61
2019-04-19T09:42:46.846Z,18.67
2019-04-19T09:43:52.331Z,18.72
2019-04-19T09:44:49.727Z,18.75
2019-04-19T09:45:53.232Z,18.80
2019-04-19T09:46:55.410Z,18.84
2019-04-19T09:48:01.127Z,18.87
2019-04-19T09:49:15.499Z,18.84
2019-04-19T09:50:26.233Z,18.84
2019-04-19T09:51:33.599Z,18.81
2019-04-19T09:52:57.127Z,18.76
2019-04-19T09:53:58.995Z,18.74
2019-04-19T09:54:52.530Z,18.73
2019-04-19T09:55:49.712Z,18.71
2019-04-19T09:56:52.385Z,18.75
2019-04-19T09:58:00.189Z,18.79
2019-04-19T09:58:57.536Z,18.84
2019-04-19T09:59:58.044Z,18.89
2019-04-19T10:00:55.296Z,18.91
2019-04-19T10:02:00.476Z,18.94
2019-04-19T10:03:08.898Z,18.96
2019-04-19T10:04:07.798Z,18.98
2019-04-19T10:05:10.380Z,19.03
2019-04-19T10:06:15.141Z,19.06
2019-04-19T10:07:19.098Z,19.09
2019-04-19T10:08:23.960Z,19.14
2019-04-19T10:09:28.925Z,19.17
2019-04-19T10:10:33.342Z,19.17
2019-04-19T10:11:37.005Z,19.19
2019-04-19T10:12:41.120Z,19.23
2019-04-19T10:13:46.486Z,19.25
2019-04-19T10:14:49.993Z,19.23
2019-04-19T10:15:54.489Z,19.25
2019-04-19T10:16:58.878Z,19.29
2019-04-19T10:18:03.274Z,19.33
2019-04-19T10:19:08.513Z,19.37
2019-04-19T10:20:12.986Z,19.36
2019-04-19T10:21:22.325Z,19.36
2019-04-19T10:22:20.938Z,19.36
2019-04-19T10:23:25.355Z,19.37
2019-04-19T10:24:29.770Z,19.38
2019-04-19T10:25:35.369Z,19.40
2019-04-19T10:26:38.625Z,19.41
2019-04-19T10:27:43.184Z,19.45
2019-04-19T10:28:48.725Z,19.52
2019-04-19T10:29:51.937Z,19.59
2019-04-19T10:30:56.788Z,19.62
2019-04-19T10:32:00.720Z,19.68
2019-04-19T10:33:05.167Z,19.71
2019-04-19T10:34:10.114Z,19.71
2019-04-19T10:35:13.987Z,19.75
2019-04-19T10:36:18.417Z,19.78
2019-04-19T10:37:23.992Z,19.75
2019-04-19T10:38:27.586Z,19.76
2019-04-19T10:39:32.006Z,19.77
2019-04-19T10:40:37.553Z,19.79
2019-04-19T10:41:40.634Z,19.82
2019-04-19T10:42:45.248Z,19.83
2019-04-19T10:44:01.962Z,19.85
2019-04-19T10:44:54.069Z,19.83
2019-04-19T10:45:58.454Z,19.84
2019-04-19T10:47:03.036Z,19.85
2019-04-19T10:48:07.628Z,19.88
2019-04-19T10:49:19.341Z,19.89
2019-04-19T10:50:27.267Z,19.91
2019-04-19T10:51:21.668Z,19.91
2019-04-19T10:52:25.780Z,19.93
2019-04-19T10:53:30.375Z,19.94
2019-04-19T10:54:33.928Z,19.94
2019-04-19T10:55:38.341Z,19.97
2019-04-19T10:56:43.933Z,19.99
2019-04-19T10:57:47.399Z,20.02
2019-04-19T10:58:52.492Z,20.03
2019-04-19T10:59:56.635Z,20.04
2019-04-19T11:01:01.024Z,20.05
2019-04-19T11:02:06.168Z,20.05
2019-04-19T11:03:10.641Z,20.03
2019-04-19T11:04:15.067Z,19.92
2019-04-19T11:05:18.762Z,19.90
2019-04-19T11:06:23.805Z,19.93
2019-04-19T11:07:27.575Z,19.95
2019-04-19T11:08:32.741Z,19.94
2019-04-19T11:09:35.998Z,19.96
2019-04-19T11:10:40.489Z,19.96
2019-04-19T11:11:45.589Z,19.94
2019-04-19T11:12:50.219Z,19.98
2019-04-19T11:13:54.127Z,20.04
2019-04-19T11:14:58.016Z,20.12
2019-04-19T11:16:02.695Z,20.18
2019-04-19T11:17:07.467Z,20.26
2019-04-19T11:18:11.870Z,20.30
2019-04-19T11:19:20.959Z,20.33
2019-04-19T11:20:31.889Z,20.37
2019-04-19T11:21:25.389Z,20.40
2019-04-19T11:22:29.964Z,20.44
2019-04-19T11:23:33.643Z,20.47
2019-04-19T11:24:39.014Z,20.49
2019-04-19T11:25:45.790Z,20.51
2019-04-19T11:26:47.078Z,20.54
2019-04-19T11:27:53.005Z,20.61
2019-04-19T11:28:56.787Z,20.69
2019-04-19T11:30:00.614Z,20.75
2019-04-19T11:31:04.731Z,20.69
2019-04-19T11:32:10.044Z,20.66
2019-04-19T11:33:14.710Z,20.73
2019-04-19T11:34:17.879Z,20.76
2019-04-19T11:35:23.360Z,20.75
2019-04-19T11:36:26.667Z,20.80
2019-04-19T11:37:31.095Z,20.74
2019-04-19T11:38:36.679Z,20.82
2019-04-19T11:39:41.239Z,20.86
2019-04-19T11:40:44.917Z,20.94
2019-04-19T11:41:49.269Z,21.05
2019-04-19T11:42:53.260Z,21.18
2019-04-19T11:43:57.904Z,21.29
2019-04-19T11:45:01.996Z,21.29
2019-04-19T11:46:06.449Z,21.14
2019-04-19T11:47:11.100Z,21.21
2019-04-19T11:48:15.295Z,21.28
2019-04-19T11:49:28.619Z,21.36
2019-04-19T11:50:25.142Z,21.46
2019-04-19T11:51:29.816Z,21.58
2019-04-19T11:52:33.165Z,21.66
2019-04-19T11:53:38.567Z,21.75
2019-04-19T11:54:42.165Z,21.81
2019-04-19T11:55:46.637Z,21.89
2019-04-19T11:56:55.164Z,22.02
2019-04-19T11:57:55.143Z,22.11
2019-04-19T11:59:00.498Z,22.18
2019-04-19T12:00:04.215Z,22.18
2019-04-19T12:01:08.459Z,22.08
2019-04-19T12:02:13.359Z,22.08
2019-04-19T12:03:18.084Z,22.18
2019-04-19T12:04:21.823Z,22.33
2019-04-19T12:05:29.358Z,22.30
2019-04-19T12:06:30.658Z,22.28
2019-04-19T12:07:35.014Z,22.27
2019-04-19T12:08:42.192Z,22.28
2019-04-19T12:09:44.804Z,22.27
2019-04-19T12:10:48.676Z,22.26
2019-04-19T12:11:53.902Z,22.26
2019-04-19T12:12:57.401Z,22.25
2019-04-19T12:14:01.863Z,22.28
2019-04-19T12:15:06.239Z,22.30
2019-04-19T12:16:10.925Z,22.30
2019-04-19T12:17:15.303Z,22.29
2019-04-19T12:18:20.153Z,22.31
2019-04-19T12:19:36.164Z,22.27
2019-04-19T12:20:28.959Z,22.33
2019-04-19T12:21:33.533Z,22.38
2019-04-19T12:22:37.898Z,22.35
2019-04-19T12:23:41.795Z,22.32
2019-04-19T12:24:46.934Z,22.27
2019-04-19T12:25:51.355Z,22.26
2019-04-19T12:26:55.618Z,22.30
2019-04-19T12:27:59.742Z,22.32
2019-04-19T12:29:06.960Z,22.33
2019-04-19T12:30:09.379Z,22.33
2019-04-19T12:31:13.635Z,22.27
2019-04-19T12:32:17.321Z,22.24
2019-04-19T12:33:21.704Z,22.21
2019-04-19T12:34:26.131Z,22.17
2019-04-19T12:35:31.487Z,22.14
2019-04-19T12:36:35.234Z,22.09
2019-04-19T12:37:40.782Z,22.10
2019-04-19T12:38:44.062Z,22.09
2019-04-19T12:39:48.624Z,22.11
2019-04-19T12:40:54.041Z,22.15
2019-04-19T12:41:57.785Z,22.24
2019-04-19T12:43:02.187Z,22.39
2019-04-19T12:44:06.941Z,22.54
2019-04-19T12:45:10.441Z,22.61
2019-04-19T12:46:14.863Z,22.66
2019-04-19T12:47:19.333Z,22.58
2019-04-19T12:48:23.801Z,22.58
2019-04-19T12:49:28.115Z,22.57
2019-04-19T12:50:35.567Z,22.60
2019-04-19T12:51:36.990Z,22.59
2019-04-19T12:52:42.195Z,22.57
2019-04-19T12:53:47.907Z,22.55
2019-04-19T12:54:50.315Z,22.46
2019-04-19T12:55:56.024Z,22.44
2019-04-19T12:57:00.138Z,22.35
2019-04-19T12:58:04.113Z,22.34
2019-04-19T12:59:09.140Z,22.32
2019-04-19T13:00:12.448Z,22.29
2019-04-19T13:01:17.775Z,22.28
2019-04-19T13:02:22.108Z,22.29
2019-04-19T13:03:25.681Z,22.34
2019-04-19T13:04:30.565Z,22.30
2019-04-19T13:05:35.237Z,22.32
2019-04-19T13:06:39.926Z,22.31
2019-04-19T13:07:43.459Z,22.24
2019-04-19T13:08:47.991Z,22.17
2019-04-19T13:09:53.036Z,22.20
2019-04-19T13:10:56.905Z,22.21
2019-04-19T13:12:01.219Z,22.20
2019-04-19T13:13:05.755Z,22.17
2019-04-19T13:14:10.075Z,22.17
2019-04-19T13:15:15.644Z,22.12
2019-04-19T13:16:18.965Z,22.12
2019-04-19T13:17:24.231Z,22.05
2019-04-19T13:18:28.006Z,21.97
2019-04-19T13:19:33.297Z,21.90
2019-04-19T13:20:37.480Z,21.90
2019-04-19T13:21:41.111Z,21.88
2019-04-19T13:22:46.384Z,21.83
2019-04-19T13:23:50.625Z,21.79
2019-04-19T13:24:55.190Z,21.72
2019-04-19T13:25:59.572Z,21.62
2019-04-19T13:27:03.414Z,21.57
2019-04-19T13:28:07.916Z,21.51
2019-04-19T13:29:13.323Z,21.42
2019-04-19T13:30:25.866Z,21.38
2019-04-19T13:31:20.930Z,21.34
2019-04-19T13:32:25.991Z,21.26
2019-04-19T13:33:30.329Z,21.23
2019-04-19T13:34:34.116Z,21.18
2019-04-19T13:35:39.283Z,21.08
2019-04-19T13:36:43.047Z,21.04
2019-04-19T13:37:47.714Z,20.91
2019-04-19T13:38:52.989Z,20.89
2019-04-19T13:39:56.418Z,20.81
2019-04-19T13:41:00.906Z,20.71
2019-04-19T13:42:05.326Z,20.66
2019-04-19T13:43:10.935Z,20.58
2019-04-19T13:44:14.678Z,20.53
2019-04-19T13:45:26.032Z,20.46
2019-04-19T13:46:22.868Z,20.41
2019-04-19T13:47:27.304Z,20.35
2019-04-19T13:48:32.486Z,20.30
2019-04-19T13:49:36.844Z,20.23
2019-04-19T13:50:42.663Z,20.23
2019-04-19T13:51:44.907Z,20.22
2019-04-19T13:52:49.327Z,20.15
2019-04-19T13:53:54.535Z,20.10
2019-04-19T13:54:58.851Z,20.06
2019-04-19T13:56:02.470Z,20.06
2019-04-19T13:57:07.945Z,19.98
2019-04-19T13:58:11.714Z,19.93
2019-04-19T13:59:16.005Z,19.91
2019-04-19T14:00:20.410Z,19.88
2019-04-19T14:01:24.868Z,19.87
2019-04-19T14:02:29.429Z,19.90
2019-04-19T14:03:33.291Z,19.91
2019-04-19T14:04:37.701Z,19.88
2019-04-19T14:05:42.049Z,19.81
2019-04-19T14:06:46.968Z,19.77
2019-04-19T14:07:50.928Z,19.70
2019-04-19T14:08:55.348Z,19.58
2019-04-19T14:09:59.641Z,19.55
2019-04-19T14:11:04.068Z,19.50
2019-04-19T14:12:09.257Z,19.48
2019-04-19T14:13:12.932Z,19.44
2019-04-19T14:14:18.457Z,19.42
2019-04-19T14:15:22.722Z,19.40
2019-04-19T14:16:26.088Z,19.35
2019-04-19T14:17:31.616Z,19.32
2019-04-19T14:18:35.054Z,19.26
2019-04-19T14:19:40.713Z,19.23
2019-04-19T14:20:48.463Z,19.21
2019-04-19T14:21:48.794Z,19.17
2019-04-19T14:22:52.535Z,19.16
2019-04-19T14:23:57.503Z,19.12
2019-04-19T14:25:01.437Z,19.12
2019-04-19T14:26:05.853Z,19.09
2019-04-19T14:27:11.279Z,19.07